Time;durP1;ratioP1;P1;durP2;ratioP2;P2;SDS_P1;SDS_P2;PMS_P1;PMS_P2;Temp;Humidity;BMP_temperature;BMP_pressure;BME280_temperature;BME280_humidity;BME280_pressure;Samples;Min_cycle;Max_cycle;Signal;HPM_P1;HPM_P2
2022/12/29 00:02:00;;;;;;;7.18;6.20;;;10.40;99.90;;;;;;5052208;28;20294;-74
2022/12/29 00:04:28;;;;;;;8.20;5.80;;;10.30;99.90;;;;;;5051481;28;20205;-72
2022/12/29 00:06:55;;;;;;;6.05;5.55;;;10.40;99.90;;;;;;5056197;28;20200;-71
2022/12/29 00:09:22;;;;;;;5.80;5.15;;;10.40;99.90;;;;;;5056978;28;20205;-71
2022/12/29 00:11:50;;;;;;;6.38;5.88;;;10.40;99.90;;;;;;5056575;28;20273;-74
2022/12/29 00:17:02;;;;;;;6.97;6.40;;;10.40;99.90;;;;;;5067198;28;20204;-72
2022/12/29 00:36:05;;;;;;;7.53;6.95;;;10.60;99.90;;;;;;5046605;28;20223;-73
2022/12/29 00:44:07;;;;;;;7.78;6.82;;;10.70;99.90;;;;;;5069378;28;20207;-74
2022/12/29 00:46:35;;;;;;;9.48;7.80;;;10.70;99.90;;;;;;5055427;28;20239;-72
2022/12/29 00:51:49;;;;;;;8.20;7.50;;;10.80;99.90;;;;;;5047358;28;20640;-72
2022/12/29 00:54:16;;;;;;;8.80;7.97;;;10.80;99.90;;;;;;5053736;28;20656;-71
2022/12/29 00:56:43;;;;;;;8.52;7.63;;;10.80;99.90;;;;;;5050388;28;20252;-72
2022/12/29 00:59:11;;;;;;;9.95;9.05;;;10.80;99.90;;;;;;5058443;28;20203;-73
2022/12/29 01:01:39;;;;;;;8.82;8.02;;;10.80;99.90;;;;;;5054652;28;20229;-73
2022/12/29 01:04:07;;;;;;;10.18;9.38;;;10.80;99.90;;;;;;5061785;28;20881;-72
2022/12/29 01:06:35;;;;;;;9.00;8.20;;;10.90;99.90;;;;;;5055123;28;20249;-72
2022/12/29 01:11:50;;;;;;;9.25;8.35;;;10.80;99.90;;;;;;5051490;28;20196;-73
2022/12/29 01:14:17;;;;;;;9.68;8.18;;;10.80;99.90;;;;;;5059703;28;20243;-73
2022/12/29 01:16:44;;;;;;;7.25;6.65;;;10.90;99.90;;;;;;5061362;28;20228;-72
2022/12/29 01:19:11;;;;;;;7.40;6.68;;;11.00;99.90;;;;;;5053090;28;20204;-73
2022/12/29 01:21:38;;;;;;;7.78;7.18;;;11.00;99.90;;;;;;5050669;28;20235;-72
2022/12/29 01:24:09;;;;;;;8.05;7.35;;;11.00;99.90;;;;;;5051586;28;20285;-72
2022/12/29 01:26:36;;;;;;;7.10;6.50;;;11.00;99.90;;;;;;5049994;28;20261;-73
2022/12/29 01:29:03;;;;;;;7.55;6.95;;;11.00;99.90;;;;;;5044440;28;20198;-73
2022/12/29 01:31:30;;;;;;;7.90;7.10;;;11.00;99.90;;;;;;5052911;28;20209;-73
2022/12/29 01:33:57;;;;;;;6.20;5.70;;;11.10;99.90;;;;;;5045596;28;20514;-74
2022/12/29 01:36:25;;;;;;;6.63;6.15;;;11.10;99.90;;;;;;5054953;28;20635;-72
2022/12/29 01:38:52;;;;;;;6.35;5.85;;;11.10;99.90;;;;;;5061244;28;20204;-72
2022/12/29 01:41:21;;;;;;;7.03;6.43;;;11.10;99.90;;;;;;5058697;28;20275;-72
2022/12/29 01:44:19;;;;;;;6.80;6.30;;;11.10;99.90;;;;;;5057837;28;20245;-73
2022/12/29 01:46:50;;;;;;;6.80;6.18;;;11.10;99.90;;;;;;5048413;28;20221;-72
2022/12/29 01:49:21;;;;;;;7.00;6.40;;;11.10;99.90;;;;;;5054211;28;20319;-71
2022/12/29 01:51:51;;;;;;;7.72;7.07;;;11.20;99.90;;;;;;5057468;28;20204;-73
2022/12/29 01:54:25;;;;;;;7.35;6.80;;;11.10;99.90;;;;;;5061303;28;20197;-73
2022/12/29 01:56:56;;;;;;;7.00;6.50;;;11.10;99.90;;;;;;5058142;28;20225;-72
2022/12/29 01:59:28;;;;;;;6.25;5.68;;;11.20;99.90;;;;;;5059645;28;20285;-74
2022/12/29 02:01:56;;;;;;;7.50;6.80;;;11.20;99.90;;;;;;5057882;28;20258;-73
2022/12/29 02:04:25;;;;;;;7.18;6.47;;;11.20;99.90;;;;;;5057479;28;20640;-72
2022/12/29 02:06:57;;;;;;;7.70;7.00;;;11.30;99.90;;;;;;5065026;28;20222;-72
2022/12/29 02:09:24;;;;;;;6.97;6.38;;;11.30;99.90;;;;;;5055971;28;20201;-72
2022/12/29 02:11:53;;;;;;;7.35;6.75;;;11.20;99.90;;;;;;5063484;28;20239;-73
2022/12/29 02:14:20;;;;;;;7.00;6.38;;;11.30;99.90;;;;;;5055626;28;20623;-73
2022/12/29 02:17:05;;;;;;;6.60;6.10;;;11.30;99.90;;;;;;5059847;28;20249;-73
2022/12/29 02:20:06;;;;;;;7.88;7.28;;;11.30;99.90;;;;;;5041233;28;20715;-73
2022/12/29 02:22:40;;;;;;;6.15;5.65;;;11.30;99.90;;;;;;5045970;28;20299;-73
2022/12/29 02:25:41;;;;;;;6.22;5.80;;;11.30;99.90;;;;;;5039365;28;20227;-71
2022/12/29 02:28:28;;;;;;;6.18;5.68;;;11.30;99.90;;;;;;5067816;28;20191;-74
2022/12/29 02:31:08;;;;;;;6.72;6.15;;;11.30;99.90;;;;;;5033087;28;20205;-73
2022/12/29 02:33:51;;;;;;;8.60;5.80;;;11.30;99.90;;;;;;5048197;28;20521;-73
2022/12/29 02:36:26;;;;;;;6.43;5.93;;;11.30;99.90;;;;;;5045671;28;20225;-72
2022/12/29 02:39:19;;;;;;;5.97;5.57;;;11.30;99.90;;;;;;5043671;28;20260;-73
2022/12/29 02:41:55;;;;;;;6.03;5.57;;;11.30;99.90;;;;;;5047340;28;20285;-72
2022/12/29 02:44:28;;;;;;;6.55;5.85;;;11.40;99.90;;;;;;5054816;28;20206;-72
2022/12/29 02:47:03;;;;;;;6.40;5.90;;;11.40;99.90;;;;;;5047318;28;20189;-73
2022/12/29 02:49:37;;;;;;;5.53;5.13;;;11.40;99.90;;;;;;5054886;28;20193;-72
2022/12/29 02:52:07;;;;;;;6.40;5.80;;;11.40;99.90;;;;;;5035772;28;20198;-71
2022/12/29 02:54:42;;;;;;;6.40;5.85;;;11.50;99.90;;;;;;5050449;28;20209;-71
2022/12/29 02:57:14;;;;;;;6.93;6.40;;;11.50;99.90;;;;;;5057046;28;20197;-72
2022/12/29 02:59:44;;;;;;;6.70;6.20;;;11.50;99.90;;;;;;5053337;28;20201;-73
2022/12/29 03:02:29;;;;;;;6.00;5.60;;;11.50;99.90;;;;;;5052650;28;20214;-73
2022/12/29 03:05:29;;;;;;;6.00;5.60;;;11.50;99.90;;;;;;5036663;28;20743;-73
2022/12/29 03:08:04;;;;;;;6.45;5.95;;;11.60;99.90;;;;;;5052063;28;20232;-73
2022/12/29 03:10:42;;;;;;;5.97;5.47;;;11.60;99.90;;;;;;5045873;28;20279;-73
2022/12/29 03:16:10;;;;;;;5.00;4.70;;;11.60;99.90;;;;;;5037246;28;20225;-72
2022/12/29 03:18:45;;;;;;;5.35;4.85;;;11.60;99.90;;;;;;5053261;28;20203;-71
2022/12/29 03:21:16;;;;;;;5.25;4.85;;;11.60;99.90;;;;;;5051786;28;20620;-72
2022/12/29 03:23:48;;;;;;;4.10;3.80;;;11.60;99.90;;;;;;5052738;28;20249;-72
2022/12/29 03:26:18;;;;;;;3.25;3.05;;;11.70;99.90;;;;;;5051712;28;20229;-72
2022/12/29 03:28:51;;;;;;;3.10;2.90;;;11.60;99.90;;;;;;5047584;28;20207;-74
2022/12/29 03:31:20;;;;;;;4.07;3.78;;;11.50;99.90;;;;;;5055405;28;20205;-72
2022/12/29 03:33:49;;;;;;;5.55;2.90;;;11.50;99.90;;;;;;5051634;28;20188;-69
2022/12/29 03:36:28;;;;;;;3.50;3.20;;;11.60;99.90;;;;;;5066406;28;20301;-72
2022/12/29 03:39:00;;;;;;;4.07;3.78;;;11.50;99.90;;;;;;5050097;28;20198;-73
2022/12/29 03:41:31;;;;;;;3.40;3.10;;;11.40;99.90;;;;;;5052764;28;20257;-73
2022/12/29 03:43:58;;;;;;;2.88;2.67;;;11.40;99.90;;;;;;5054619;28;20214;-73
2022/12/29 03:46:25;;;;;;;3.17;2.97;;;11.50;99.90;;;;;;5052376;28;20252;-72
2022/12/29 03:48:53;;;;;;;2.92;2.72;;;11.50;99.90;;;;;;5055804;28;20202;-74
2022/12/29 03:51:20;;;;;;;2.85;2.65;;;11.50;99.90;;;;;;5050022;28;20204;-73
2022/12/29 03:53:47;;;;;;;2.97;2.65;;;11.50;99.90;;;;;;5051919;28;20610;-73
2022/12/29 03:56:14;;;;;;;3.92;3.63;;;11.50;99.90;;;;;;5052757;28;20230;-73
2022/12/29 03:58:41;;;;;;;2.78;2.58;;;11.50;99.90;;;;;;5052202;28;20292;-73
2022/12/29 04:01:08;;;;;;;3.40;3.10;;;11.50;99.90;;;;;;5054040;28;20281;-73
2022/12/29 04:03:35;;;;;;;3.03;2.83;;;11.40;99.90;;;;;;5059393;28;20576;-72
2022/12/29 04:06:04;;;;;;;3.17;2.88;;;11.40;99.90;;;;;;5048968;28;20242;-72
2022/12/29 04:08:31;;;;;;;4.07;3.78;;;11.40;99.90;;;;;;5059124;28;20293;-72
2022/12/29 04:10:57;;;;;;;4.70;4.30;;;11.30;99.90;;;;;;5070260;28;20217;-72
2022/12/29 04:13:24;;;;;;;4.00;3.70;;;11.30;99.90;;;;;;5064035;28;20199;-72
2022/12/29 04:15:51;;;;;;;7.80;7.10;;;11.20;99.90;;;;;;5052846;28;20605;-73
2022/12/29 04:18:19;;;;;;;5.70;5.20;;;11.20;99.90;;;;;;5052475;28;20288;-73
2022/12/29 04:21:02;;;;;;;6.20;5.70;;;11.10;99.90;;;;;;5051832;28;20284;-72
2022/12/29 04:23:32;;;;;;;4.90;4.50;;;11.10;99.90;;;;;;5058059;28;20680;-73
2022/12/29 04:25:59;;;;;;;6.05;5.55;;;11.10;99.90;;;;;;5056585;28;20315;-71
2022/12/29 04:28:26;;;;;;;6.63;6.13;;;11.10;99.90;;;;;;5049456;28;20222;-72
2022/12/29 04:30:53;;;;;;;6.07;5.57;;;11.00;99.90;;;;;;5051429;28;20284;-71
2022/12/29 04:33:20;;;;;;;6.53;6.03;;;11.10;99.90;;;;;;5050179;28;20290;-73
2022/12/29 04:35:48;;;;;;;6.07;5.57;;;11.10;99.90;;;;;;5051883;28;20250;-74
2022/12/29 04:38:15;;;;;;;5.88;5.38;;;11.10;99.90;;;;;;5052423;28;20277;-72
2022/12/29 04:40:44;;;;;;;4.97;4.68;;;11.10;99.90;;;;;;5051668;28;20300;-73
2022/12/29 04:43:11;;;;;;;5.45;5.05;;;11.10;99.90;;;;;;5049806;28;20775;-72
2022/12/29 04:45:39;;;;;;;6.05;5.45;;;11.10;99.90;;;;;;5047760;28;20263;-72
2022/12/29 04:48:06;;;;;;;5.72;5.32;;;11.10;99.90;;;;;;5059884;28;20707;-71
2022/12/29 04:50:33;;;;;;;6.13;5.55;;;11.10;99.90;;;;;;5052224;28;20272;-73
2022/12/29 04:53:00;;;;;;;5.40;5.00;;;11.20;99.90;;;;;;5054989;28;20692;-72
2022/12/29 04:55:27;;;;;;;4.63;4.32;;;11.20;99.90;;;;;;5055260;28;20219;-72
2022/12/29 04:57:56;;;;;;;9.60;4.38;;;11.20;99.90;;;;;;5060028;28;20228;-73
2022/12/29 05:00:23;;;;;;;4.65;4.30;;;11.20;99.90;;;;;;5056703;28;20297;-73
2022/12/29 05:02:50;;;;;;;5.15;3.88;;;11.30;99.90;;;;;;5055547;28;20242;-73
2022/12/29 05:05:17;;;;;;;4.60;4.20;;;11.30;99.90;;;;;;5061392;28;20258;-73
2022/12/29 05:07:44;;;;;;;3.70;3.40;;;11.20;99.90;;;;;;5062874;28;20207;-73
2022/12/29 05:10:12;;;;;;;4.22;3.83;;;11.20;99.90;;;;;;5060267;28;20704;-73
2022/12/29 05:12:39;;;;;;;4.25;3.95;;;11.30;99.90;;;;;;5061109;28;20199;-73
2022/12/29 05:15:10;;;;;;;4.63;4.32;;;11.30;99.90;;;;;;5057343;28;20631;-73
2022/12/29 05:17:38;;;;;;;4.70;4.40;;;11.30;99.90;;;;;;5061000;28;20278;-73
2022/12/29 05:20:06;;;;;;;7.70;4.68;;;11.40;99.90;;;;;;5073942;28;20241;-72
2022/12/29 05:22:33;;;;;;;3.30;3.00;;;11.40;99.90;;;;;;5056436;28;20194;-73
2022/12/29 05:25:00;;;;;;;2.95;2.75;;;11.20;99.90;;;;;;5058288;28;20224;-73
2022/12/29 05:27:27;;;;;;;3.38;2.30;;;11.10;99.90;;;;;;5059373;28;20204;-72
2022/12/29 05:29:54;;;;;;;2.70;2.40;;;10.90;99.90;;;;;;5055867;28;20204;-72
2022/12/29 05:32:22;;;;;;;2.60;1.95;;;10.80;99.90;;;;;;5054710;28;20200;-72
2022/12/29 05:34:49;;;;;;;3.80;1.55;;;10.70;99.90;;;;;;5055143;28;20264;-72
2022/12/29 05:37:16;;;;;;;1.80;1.70;;;10.70;99.90;;;;;;5057851;28;20205;-72
2022/12/29 05:39:43;;;;;;;1.45;1.35;;;10.70;99.90;;;;;;5059031;28;20559;-71
2022/12/29 05:42:10;;;;;;;2.15;1.95;;;10.60;99.90;;;;;;5052163;28;20197;-72
2022/12/29 05:44:37;;;;;;;3.83;3.53;;;10.60;99.90;;;;;;5058649;28;20213;-72
2022/12/29 05:47:04;;;;;;;4.55;3.30;;;10.70;99.90;;;;;;5052590;28;20206;-71
2022/12/29 05:49:33;;;;;;;4.72;3.83;;;10.70;99.90;;;;;;5054737;28;20189;-71
2022/12/29 05:52:00;;;;;;;3.90;3.60;;;10.70;99.90;;;;;;5054857;28;20196;-71
2022/12/29 05:54:27;;;;;;;4.20;3.80;;;10.80;99.90;;;;;;5071884;28;20580;-71
2022/12/29 05:56:53;;;;;;;7.10;4.80;;;10.80;99.90;;;;;;5067610;28;20276;-72
2022/12/29 05:59:20;;;;;;;4.47;4.07;;;10.80;99.90;;;;;;5059302;28;20719;-72
2022/12/29 06:01:47;;;;;;;5.03;4.30;;;10.90;99.90;;;;;;5064196;28;20233;-72
2022/12/29 06:04:14;;;;;;;4.00;3.70;;;10.90;99.90;;;;;;5054665;28;20231;-72
2022/12/29 06:06:42;;;;;;;4.80;4.35;;;11.00;99.90;;;;;;5058782;28;20306;-72
2022/12/29 06:09:11;;;;;;;3.78;3.47;;;11.00;99.90;;;;;;5060217;28;20210;-73
2022/12/29 06:11:38;;;;;;;6.38;3.35;;;11.00;99.90;;;;;;5048828;28;20227;-72
2022/12/29 06:14:05;;;;;;;4.05;3.05;;;11.10;99.90;;;;;;5052408;28;20197;-74
2022/12/29 06:16:32;;;;;;;3.67;3.30;;;11.10;99.90;;;;;;5053360;28;20248;-73
2022/12/29 06:18:59;;;;;;;3.63;3.22;;;11.10;99.90;;;;;;5048958;28;20195;-73
2022/12/29 06:21:25;;;;;;;3.55;3.22;;;11.10;99.90;;;;;;5048715;28;20196;-73
2022/12/29 06:23:54;;;;;;;6.47;3.45;;;11.10;99.90;;;;;;5054094;28;20332;-73
2022/12/29 06:26:21;;;;;;;4.60;3.50;;;11.20;99.90;;;;;;5014964;28;1089795;-73
2022/12/29 06:28:48;;;;;;;3.92;3.65;;;11.20;99.90;;;;;;5054229;28;20447;-72
2022/12/29 06:31:15;;;;;;;2.92;2.72;;;11.30;99.90;;;;;;5052962;28;20653;-73
2022/12/29 06:33:42;;;;;;;3.65;3.35;;;11.40;99.90;;;;;;5053616;28;20558;-71
2022/12/29 06:36:09;;;;;;;5.30;3.40;;;11.40;99.90;;;;;;5053601;28;20226;-71
2022/12/29 06:38:36;;;;;;;2.92;2.60;;;11.40;99.90;;;;;;5053572;28;20298;-71
2022/12/29 06:41:05;;;;;;;3.92;2.95;;;11.40;99.90;;;;;;5053015;28;20290;-72
2022/12/29 06:43:32;;;;;;;4.20;3.13;;;11.40;99.90;;;;;;5046177;28;20303;-72
2022/12/29 06:45:59;;;;;;;4.22;3.67;;;11.30;99.90;;;;;;5053132;28;20223;-74
2022/12/29 06:48:26;;;;;;;3.88;3.10;;;11.20;99.90;;;;;;5057378;28;20230;-73
2022/12/29 06:50:53;;;;;;;3.53;3.20;;;11.20;99.90;;;;;;5051114;28;20205;-72
2022/12/29 06:53:20;;;;;;;4.57;3.75;;;11.10;99.90;;;;;;5046987;28;20246;-72
2022/12/29 06:55:47;;;;;;;4.13;3.72;;;11.10;99.90;;;;;;5045791;28;20229;-72
2022/12/29 06:58:15;;;;;;;5.00;4.20;;;11.00;99.90;;;;;;5052039;28;20225;-71
2022/12/29 07:00:42;;;;;;;6.18;4.20;;;11.00;99.90;;;;;;5060292;28;20640;-72
2022/12/29 07:03:09;;;;;;;6.93;5.10;;;11.00;99.90;;;;;;5069759;28;20201;-71
2022/12/29 07:05:38;;;;;;;6.45;4.60;;;10.80;99.90;;;;;;5066505;28;20257;-71
2022/12/29 07:08:05;;;;;;;5.80;5.18;;;10.80;99.90;;;;;;5062971;28;20285;-71
2022/12/29 07:10:32;;;;;;;6.15;4.80;;;10.80;99.90;;;;;;5063743;28;20738;-71
2022/12/29 07:12:59;;;;;;;5.35;4.90;;;10.70;99.90;;;;;;5059168;28;20643;-74
2022/12/29 07:15:27;;;;;;;5.38;4.20;;;10.70;99.90;;;;;;5050703;28;20259;-72
2022/12/29 07:17:54;;;;;;;5.22;4.35;;;10.60;99.90;;;;;;5049335;28;20194;-72
2022/12/29 07:20:21;;;;;;;6.13;3.80;;;10.60;99.90;;;;;;5046426;28;20294;-72
2022/12/29 07:22:48;;;;;;;3.33;3.00;;;10.60;99.90;;;;;;5050772;28;20280;-72
2022/12/29 07:25:15;;;;;;;3.80;2.53;;;10.50;99.90;;;;;;5048615;28;20273;-72
2022/12/29 07:27:42;;;;;;;2.50;1.98;;;10.40;99.90;;;;;;5046286;28;20203;-71
2022/12/29 07:30:10;;;;;;;4.57;2.65;;;10.40;99.90;;;;;;5051063;28;20286;-70
2022/12/29 07:32:38;;;;;;;3.47;2.38;;;10.40;99.90;;;;;;5046597;28;20266;-72
2022/12/29 07:35:06;;;;;;;4.40;2.70;;;10.40;99.90;;;;;;5051135;28;20224;-72
2022/12/29 07:37:33;;;;;;;4.53;1.70;;;10.30;99.90;;;;;;5045569;28;20199;-71
2022/12/29 07:40:03;;;;;;;3.72;1.83;;;10.30;99.90;;;;;;5058641;28;20210;-70
2022/12/29 07:42:36;;;;;;;2.50;1.90;;;10.30;99.90;;;;;;5056074;28;20202;-70
2022/12/29 07:45:05;;;;;;;2.15;1.55;;;10.30;99.90;;;;;;5051409;28;20228;-71
2022/12/29 07:47:32;;;;;;;4.90;1.50;;;10.30;99.90;;;;;;5052012;28;20209;-70
2022/12/29 07:50:00;;;;;;;1.48;1.38;;;10.30;99.90;;;;;;5043135;28;20232;-72
2022/12/29 07:52:27;;;;;;;5.60;2.00;;;10.30;99.90;;;;;;5050757;28;20206;-71
2022/12/29 07:54:54;;;;;;;5.47;1.40;;;10.30;99.90;;;;;;5044730;28;20639;-70
2022/12/29 07:57:21;;;;;;;2.65;1.90;;;10.40;99.90;;;;;;5054486;28;20283;-68
2022/12/29 07:59:48;;;;;;;2.25;1.40;;;10.40;99.90;;;;;;5053737;28;20291;-70
2022/12/29 08:02:15;;;;;;;7.32;1.60;;;10.40;99.90;;;;;;5048527;28;20203;-69
2022/12/29 08:04:42;;;;;;;1.65;1.15;;;10.40;99.90;;;;;;5048720;28;20220;-68
2022/12/29 08:07:10;;;;;;;3.47;1.20;;;10.40;99.90;;;;;;5050205;28;20229;-71
2022/12/29 08:09:37;;;;;;;4.47;2.50;;;10.40;99.90;;;;;;5047910;28;20284;-72
2022/12/29 08:12:04;;;;;;;3.33;1.52;;;10.40;99.90;;;;;;5051121;28;20192;-71
2022/12/29 08:14:31;;;;;;;3.55;1.50;;;10.40;99.90;;;;;;5048115;28;20238;-71
2022/12/29 08:16:58;;;;;;;4.05;1.50;;;10.40;99.90;;;;;;5053304;28;20201;-71
2022/12/29 08:19:25;;;;;;;2.85;1.42;;;10.40;99.90;;;;;;5047682;28;20557;-69
2022/12/29 08:21:52;;;;;;;5.40;1.55;;;10.40;99.90;;;;;;5046997;28;20243;-70
2022/12/29 08:24:20;;;;;;;5.13;2.30;;;10.50;99.90;;;;;;5051970;28;20221;-70
2022/12/29 08:26:47;;;;;;;4.28;2.63;;;10.50;99.90;;;;;;5050364;28;20229;-70
2022/12/29 08:29:14;;;;;;;5.15;1.40;;;10.50;99.90;;;;;;5054404;28;20200;-70
2022/12/29 08:31:41;;;;;;;2.97;1.20;;;10.50;99.90;;;;;;5051184;28;20211;-69
2022/12/29 08:34:08;;;;;;;5.63;1.40;;;10.60;99.90;;;;;;5048541;28;20223;-70
2022/12/29 08:36:35;;;;;;;3.00;1.70;;;10.60;99.90;;;;;;5049073;28;20219;-71
2022/12/29 08:39:02;;;;;;;2.63;1.20;;;10.70;99.90;;;;;;5051145;28;20209;-70
2022/12/29 08:41:30;;;;;;;7.15;1.75;;;10.60;99.90;;;;;;5046432;28;20280;-71
2022/12/29 08:43:57;;;;;;;8.10;1.50;;;10.70;99.90;;;;;;5046187;28;20669;-71
2022/12/29 08:46:24;;;;;;;5.60;1.55;;;10.70;99.90;;;;;;5052125;28;20310;-71
2022/12/29 08:48:51;;;;;;;4.07;2.25;;;10.70;99.90;;;;;;5056302;28;20571;-71
2022/12/29 08:51:18;;;;;;;3.95;1.27;;;10.90;99.90;;;;;;5057247;28;20205;-70
2022/12/29 08:53:45;;;;;;;4.43;1.50;;;10.90;99.90;;;;;;5061006;28;20210;-71
2022/12/29 08:56:13;;;;;;;4.15;1.20;;;11.20;99.90;;;;;;5064288;28;20717;-70
2022/12/29 08:58:41;;;;;;;3.25;1.55;;;11.60;99.90;;;;;;5060056;28;20209;-70
2022/12/29 09:01:10;;;;;;;2.90;2.22;;;11.80;99.90;;;;;;5057307;28;20237;-70
2022/12/29 09:03:37;;;;;;;2.88;1.77;;;12.10;99.90;;;;;;5053517;28;20203;-70
2022/12/29 09:06:04;;;;;;;6.95;1.83;;;12.30;99.90;;;;;;5055183;28;20230;-69
2022/12/29 09:08:31;;;;;;;3.60;1.48;;;12.30;99.90;;;;;;5047079;28;20200;-70
2022/12/29 09:11:07;;;;;;;6.35;1.50;;;11.80;99.90;;;;;;5049299;28;20700;-70
2022/12/29 09:13:34;;;;;;;4.43;1.63;;;11.40;99.90;;;;;;5053450;28;20285;-69
2022/12/29 09:16:03;;;;;;;3.63;1.95;;;11.20;99.90;;;;;;5056828;28;20219;-71
2022/12/29 09:18:30;;;;;;;3.22;1.40;;;11.40;99.90;;;;;;5058790;28;20242;-71
2022/12/29 09:20:58;;;;;;;10.10;1.95;;;11.40;99.90;;;;;;5057258;28;20623;-70
2022/12/29 09:23:25;;;;;;;7.97;2.20;;;11.60;99.90;;;;;;5057685;28;20202;-68
2022/12/29 09:25:52;;;;;;;3.92;1.13;;;11.50;99.90;;;;;;5058367;28;20229;-71
2022/12/29 09:28:19;;;;;;;5.70;1.92;;;11.20;99.90;;;;;;5048317;28;20302;-70
2022/12/29 09:30:46;;;;;;;3.35;1.50;;;11.20;99.90;;;;;;5049061;28;20231;-71
2022/12/29 09:33:15;;;;;;;4.97;1.27;;;11.20;99.90;;;;;;5051512;28;20291;-69
2022/12/29 09:35:43;;;;;;;7.32;2.40;;;11.20;99.90;;;;;;5047843;28;20693;-70
2022/12/29 09:38:10;;;;;;;5.80;2.42;;;11.20;99.90;;;;;;5060869;28;20593;-68
2022/12/29 09:40:38;;;;;;;2.20;1.40;;;11.20;99.90;;;;;;5054084;28;20289;-70
2022/12/29 09:43:27;;;;;;;3.90;2.03;;;11.20;99.90;;;;;;5064058;28;20513;-71
2022/12/29 09:46:03;;;;;;;4.28;1.83;;;11.20;99.90;;;;;;5062506;28;20304;-71
2022/12/29 09:48:38;;;;;;;6.90;2.35;;;11.20;99.90;;;;;;5052444;28;20209;-72
2022/12/29 09:51:16;;;;;;;2.15;1.20;;;11.20;99.90;;;;;;5049297;28;20282;-71
2022/12/29 09:53:45;;;;;;;5.18;1.75;;;11.20;99.90;;;;;;5058101;28;20277;-71
2022/12/29 09:56:16;;;;;;;6.85;1.52;;;11.10;99.90;;;;;;5059692;28;20253;-72
2022/12/29 09:58:51;;;;;;;2.35;1.30;;;11.10;99.90;;;;;;5054129;28;20217;-70
2022/12/29 10:01:28;;;;;;;9.35;1.98;;;11.00;99.90;;;;;;5055519;28;20246;-71
2022/12/29 10:03:59;;;;;;;2.92;1.30;;;11.00;99.90;;;;;;5051657;28;20189;-73
2022/12/29 10:06:33;;;;;;;4.55;1.40;;;11.00;99.90;;;;;;5058851;28;20279;-70
2022/12/29 10:09:09;;;;;;;4.45;1.50;;;11.30;99.90;;;;;;5053957;28;20198;-72
2022/12/29 10:11:57;;;;;;;3.88;1.60;;;11.30;99.90;;;;;;5035595;28;20275;-72
2022/12/29 10:14:42;;;;;;;8.13;1.80;;;11.40;99.90;;;;;;5055751;28;20206;-70
2022/12/29 10:17:23;;;;;;;3.05;1.70;;;11.40;99.90;;;;;;5030503;28;20536;-71
2022/12/29 10:20:05;;;;;;;4.53;1.42;;;11.40;99.90;;;;;;5064782;28;20299;-74
2022/12/29 10:22:47;;;;;;;9.25;3.45;;;11.30;99.90;;;;;;5048408;28;20640;-73
2022/12/29 10:25:19;;;;;;;7.00;1.52;;;11.20;99.90;;;;;;5034632;28;20619;-73
2022/12/29 10:27:49;;;;;;;3.47;1.45;;;11.00;99.90;;;;;;5044263;28;20284;-72
2022/12/29 10:30:17;;;;;;;1.40;1.30;;;11.00;99.90;;;;;;5051875;28;20225;-73
2022/12/29 10:32:48;;;;;;;5.93;1.88;;;11.10;99.90;;;;;;5053187;28;20201;-72
2022/12/29 10:35:20;;;;;;;6.93;1.40;;;11.40;99.90;;;;;;5050123;28;20218;-73
2022/12/29 10:37:53;;;;;;;1.90;0.90;;;11.60;99.90;;;;;;5041371;28;20664;-73
2022/12/29 10:40:25;;;;;;;3.17;1.65;;;11.60;99.90;;;;;;5050567;28;20285;-74
2022/12/29 10:42:55;;;;;;;1.90;1.17;;;11.50;99.90;;;;;;5041111;28;20207;-75
2022/12/29 10:45:26;;;;;;;1.88;0.95;;;11.30;99.90;;;;;;5062682;28;20268;-70
2022/12/29 10:47:56;;;;;;;2.22;0.95;;;11.10;99.90;;;;;;5059298;28;20205;-73
2022/12/29 10:50:27;;;;;;;4.05;1.13;;;11.30;99.90;;;;;;5044957;28;20202;-71
2022/12/29 10:52:56;;;;;;;4.63;1.10;;;11.30;99.90;;;;;;5051430;28;20562;-72
2022/12/29 10:55:28;;;;;;;1.55;0.95;;;11.20;99.90;;;;;;5047628;28;20225;-73
2022/12/29 10:57:57;;;;;;;4.57;1.25;;;11.40;99.90;;;;;;5053454;28;20200;-72
2022/12/29 11:00:25;;;;;;;2.92;1.30;;;11.50;99.90;;;;;;5055640;28;20209;-71
2022/12/29 11:03:15;;;;;;;4.47;1.40;;;11.60;99.90;;;;;;5054729;28;20288;-72
2022/12/29 11:05:50;;;;;;;3.65;1.33;;;11.60;99.90;;;;;;5048568;28;20228;-71
2022/12/29 11:08:19;;;;;;;5.10;2.30;;;11.50;99.90;;;;;;5033733;28;20236;-71
2022/12/29 11:10:57;;;;;;;6.03;1.90;;;11.30;99.90;;;;;;5054972;28;20290;-71
2022/12/29 11:13:27;;;;;;;3.75;1.50;;;11.50;99.90;;;;;;5048282;28;20200;-73
2022/12/29 11:15:54;;;;;;;8.25;2.58;;;11.60;99.90;;;;;;5048809;28;20301;-71
2022/12/29 11:18:24;;;;;;;6.88;2.25;;;11.70;99.90;;;;;;5050501;28;20257;-72
2022/12/29 11:20:55;;;;;;;2.38;1.30;;;11.50;99.90;;;;;;5049755;28;20195;-71
2022/12/29 11:23:26;;;;;;;3.58;2.00;;;11.70;99.90;;;;;;5050256;28;20297;-72
2022/12/29 11:26:13;;;;;;;5.10;2.45;;;11.70;99.90;;;;;;5052418;28;20576;-74
2022/12/29 11:28:41;;;;;;;3.33;1.63;;;11.80;99.90;;;;;;5054916;28;20242;-73
2022/12/29 11:31:10;;;;;;;8.60;1.35;;;11.60;99.90;;;;;;5051145;28;20289;-73
2022/12/29 11:33:39;;;;;;;9.15;2.10;;;11.60;99.90;;;;;;5049298;28;20191;-72
2022/12/29 11:36:12;;;;;;;5.80;1.90;;;11.60;99.90;;;;;;5054308;28;20576;-74
2022/12/29 11:38:42;;;;;;;7.40;2.05;;;11.60;99.90;;;;;;5050360;28;20226;-73
2022/12/29 11:41:22;;;;;;;6.85;1.98;;;11.70;99.90;;;;;;5056130;28;20199;-73
2022/12/29 11:43:49;;;;;;;5.93;1.75;;;11.70;99.90;;;;;;5052430;28;20645;-74
2022/12/29 11:46:19;;;;;;;7.60;1.80;;;11.60;99.90;;;;;;5051822;28;20290;-75
2022/12/29 11:48:48;;;;;;;6.25;1.80;;;11.70;99.90;;;;;;5047337;28;20282;-72
2022/12/29 11:51:23;;;;;;;5.82;1.52;;;11.70;99.90;;;;;;5051679;28;20201;-73
2022/12/29 11:53:55;;;;;;;6.85;2.30;;;11.60;99.90;;;;;;5036864;28;20210;-71
2022/12/29 11:56:34;;;;;;;9.80;2.60;;;11.80;99.90;;;;;;5057617;28;20634;-70
2022/12/29 11:59:25;;;;;;;4.07;1.25;;;11.60;99.90;;;;;;5061027;28;20370;-71
2022/12/29 12:01:52;;;;;;;7.25;1.38;;;11.60;99.90;;;;;;5058414;28;20583;-71
2022/12/29 12:04:24;;;;;;;4.30;1.73;;;11.60;99.90;;;;;;5061026;28;20223;-69
2022/12/29 12:07:01;;;;;;;6.97;1.70;;;11.60;99.90;;;;;;5063342;28;20206;-71
2022/12/29 12:09:33;;;;;;;5.05;1.77;;;11.60;99.90;;;;;;5056090;28;20225;-72
2022/12/29 12:12:02;;;;;;;3.97;2.40;;;11.70;99.90;;;;;;5056945;28;20287;-72
2022/12/29 12:14:33;;;;;;;6.65;2.15;;;11.60;99.90;;;;;;5060961;28;20652;-70
2022/12/29 12:17:04;;;;;;;5.10;2.05;;;11.60;99.90;;;;;;5058739;28;20275;-70
2022/12/29 12:19:35;;;;;;;4.00;1.85;;;11.50;99.90;;;;;;5056918;28;20787;-70
2022/12/29 12:22:11;;;;;;;4.88;2.55;;;11.50;99.90;;;;;;5058093;28;20385;-70
2022/12/29 12:24:43;;;;;;;5.50;1.90;;;11.50;99.90;;;;;;5050924;28;20198;-71
2022/12/29 12:27:14;;;;;;;5.88;2.10;;;11.70;99.90;;;;;;5055422;28;20206;-72
2022/12/29 12:29:47;;;;;;;8.90;2.78;;;11.60;99.90;;;;;;5055251;28;20257;-71
2022/12/29 12:32:20;;;;;;;8.07;2.00;;;11.60;99.90;;;;;;5056958;28;20523;-72
2022/12/29 12:34:48;;;;;;;7.95;1.75;;;11.60;99.90;;;;;;5050550;28;20315;-69
2022/12/29 12:37:45;;;;;;;3.40;1.30;;;11.70;99.90;;;;;;5045177;28;20198;-70
2022/12/29 12:40:40;;;;;;;5.05;2.25;;;11.70;99.90;;;;;;5043804;28;20203;-70
2022/12/29 12:43:37;;;;;;;6.55;2.03;;;11.60;99.90;;;;;;5048079;28;20243;-70
2022/12/29 12:46:25;;;;;;;4.63;2.15;;;11.50;99.90;;;;;;5043578;28;20363;-70
2022/12/29 12:49:24;;;;;;;4.30;1.70;;;11.50;99.90;;;;;;5051217;28;20233;-69
2022/12/29 12:52:02;;;;;;;8.98;1.73;;;11.50;99.90;;;;;;5056284;28;20321;-69
2022/12/29 12:54:46;;;;;;;4.78;2.13;;;11.40;99.90;;;;;;5043581;28;20264;-69
2022/12/29 12:57:45;;;;;;;2.35;1.08;;;11.20;99.90;;;;;;5055039;28;20215;-70
2022/12/29 13:00:17;;;;;;;10.55;1.95;;;11.20;99.90;;;;;;5053532;28;20230;-70
2022/12/29 13:02:58;;;;;;;4.10;2.28;;;11.10;99.90;;;;;;5055752;28;20231;-69
2022/12/29 13:05:48;;;;;;;4.32;1.35;;;11.00;99.90;;;;;;5055185;28;20279;-69
2022/12/29 13:08:48;;;;;;;5.40;1.40;;;11.10;99.90;;;;;;5059902;28;20198;-70
2022/12/29 13:11:28;;;;;;;2.47;1.02;;;11.10;99.90;;;;;;5059951;28;20199;-69
2022/12/29 13:14:06;;;;;;;2.05;1.30;;;11.10;99.90;;;;;;5050048;28;20602;-71
2022/12/29 13:16:41;;;;;;;5.93;1.73;;;11.00;99.90;;;;;;5033220;28;20213;-73
2022/12/29 13:19:15;;;;;;;2.10;1.08;;;10.90;99.90;;;;;;5037356;28;20293;-70
2022/12/29 13:21:56;;;;;;;5.65;1.65;;;10.90;99.90;;;;;;5035861;28;20202;-72
2022/12/29 13:24:33;;;;;;;5.97;2.00;;;10.80;99.90;;;;;;5050281;28;20188;-69
2022/12/29 13:27:11;;;;;;;6.43;1.17;;;10.80;99.90;;;;;;5029902;28;20300;-70
2022/12/29 13:29:45;;;;;;;6.35;1.73;;;10.80;99.90;;;;;;5036559;28;20740;-71
2022/12/29 13:32:27;;;;;;;3.15;1.10;;;10.70;99.90;;;;;;5044549;28;20200;-71
2022/12/29 13:35:07;;;;;;;4.40;1.98;;;10.70;99.90;;;;;;5052135;28;20231;-72
2022/12/29 13:37:42;;;;;;;5.85;1.90;;;10.60;99.90;;;;;;5050759;28;20223;-72
2022/12/29 13:40:14;;;;;;;2.72;1.50;;;10.50;99.90;;;;;;5032557;28;20650;-71